Fivea — 2FNO8 — position and weather

sailwx.info

Track history (hours):
 
Tides and Currents Weather Stations Pressure Air Temp Water Temp Dewpoint Dewpoint Depression Visibility Wind Speed Wind Dir Waves Ship Positions

Fivea

Last reported at 2016-Aug-27 23:34 UTC. Time now 2016-Aug-28 00:34 UTC.
Position N 37°48' E 023°46'.

Length 45 m; draft 3.8 m.

Type: Other ship. MMSI: 235092742.

Date/timePositionNaut miles runAvg speedWind from/ knotsBaromVisibWave heightAir tempDewpointWater temp
2016-Aug-27 23:34N 37°48' E 023°46'0 0.0
2016-Aug-27 22:31N 37°48' E 023°46'0 0.0
2016-Aug-27 21:31N 37°48' E 023°46'0 0.0
2016-Aug-27 20:34N 37°48' E 023°46'0 0.0
2016-Aug-27 19:31N 37°48' E 023°46'0 0.0
2016-Aug-27 18:31N 37°48' E 023°46'0 0.0
2016-Aug-27 17:31N 37°48' E 023°46'0 0.0
2016-Aug-27 16:31N 37°48' E 023°46'0 0.0
2016-Aug-27 15:31N 37°48' E 023°46'0 0.0
2016-Aug-27 14:31N 37°48' E 023°46'0 0.0
2016-Aug-27 13:31N 37°48' E 023°46'0 0.0
2016-Aug-27 12:31N 37°48' E 023°46'0 0.0
2016-Aug-27 11:31N 37°48' E 023°46'0 0.0
2016-Aug-27 10:34N 37°48' E 023°46'0 0.0
2016-Aug-27 09:31N 37°48' E 023°46'0 0.0
2016-Aug-27 08:34N 37°48' E 023°46'0 0.0
2016-Aug-27 07:31N 37°48' E 023°46'0 0.0
2016-Aug-27 06:34N 37°48' E 023°46'0 0.0
2016-Aug-27 04:34N 37°48' E 023°46'0 0.0
2016-Aug-27 03:34N 37°48' E 023°46'0 0.0
2016-Aug-27 02:34N 37°48' E 023°46'0 0.0
2016-Aug-27 01:34N 37°48' E 023°46'0 0.0
2016-Aug-27 00:34N 37°48' E 023°46'0 0.0
2016-Aug-26 23:34N 37°48' E 023°46'0 0.0
2016-Aug-26 22:34N 37°48' E 023°46'0 0.0
2016-Aug-26 21:34N 37°48' E 023°46'0 0.0
2016-Aug-26 20:34N 37°48' E 023°46'0 0.0
2016-Aug-26 19:34N 37°48' E 023°46'0 0.0
2016-Aug-26 18:34N 37°48' E 023°46'0 0.0
2016-Aug-26 17:34N 37°48' E 023°46'0 0.0
2016-Aug-26 16:34N 37°48' E 023°46'0 0.0
2016-Aug-26 15:34N 37°48' E 023°46'0 0.0
2016-Aug-26 14:34N 37°48' E 023°46'0 0.2
2016-Aug-26 13:33N 37°48' E 023°47'1010.5
2016-Aug-26 12:34N 37°39' E 023°41'1211.5
2016-Aug-26 11:33N 37°29' E 023°35'1211.0
2016-Aug-26 10:26N 37°22' E 023°21'1011.5
2016-Aug-26 09:33N 37°16' E 023°11'1 0.8
2016-Aug-26 08:27N 37°16' E 023°10'3 1.7
2016-Aug-26 06:24N 37°19' E 023°09'0 0.0
2016-Aug-26 04:12N 37°19' E 023°09'0 0.0
2016-Aug-26 02:33N 37°19' E 023°09'0 0.0
2016-Aug-25 23:30N 37°19' E 023°09'0 0.0
2016-Aug-25 19:03N 37°19' E 023°09'0 0.0
2016-Aug-25 18:33N 37°19' E 023°09'1 0.3
2016-Aug-25 15:30N 37°19' E 023°08'3 0.5
2016-Aug-25 09:30N 37°17' E 023°05'4 3.7
2016-Aug-25 08:27N 37°16' E 023°10'0 0.0
2016-Aug-25 07:12N 37°16' E 023°10'0 0.0
2016-Aug-25 06:31N 37°16' E 023°10'3 1.6
2016-Aug-25 04:27N 37°19' E 023°09'0 0.0
2016-Aug-25 03:30N 37°19' E 023°09'0 0.0
2016-Aug-25 02:27N 37°19' E 023°09'0 0.0
2016-Aug-25 01:30N 37°19' E 023°09'0 0.0
2016-Aug-25 00:24N 37°19' E 023°09'0 0.0
2016-Aug-24 23:33N 37°19' E 023°09'0 0.0
2016-Aug-24 22:33N 37°19' E 023°09'0 0.0
2016-Aug-24 21:33N 37°19' E 023°09'0 0.0
2016-Aug-24 20:06N 37°19' E 023°09'0 0.0
2016-Aug-24 19:24N 37°19' E 023°09'0 0.0
2016-Aug-24 18:30N 37°19' E 023°09'0 0.0
2016-Aug-24 17:24N 37°19' E 023°09'0 0.0
2016-Aug-24 16:30N 37°19' E 023°09'0 0.0
2016-Aug-24 15:21N 37°19' E 023°09'3 4.0
2016-Aug-24 14:31N 37°16' E 023°10'2 0.4
2016-Aug-24 09:21N 37°14' E 023°09'2 2.6
2016-Aug-24 08:32N 37°16' E 023°10'0 0.0
2016-Aug-24 07:29N 37°16' E 023°10'0 0.0
2016-Aug-24 06:14N 37°16' E 023°10'0 0.0
2016-Aug-24 04:32N 37°16' E 023°10'0 0.0
2016-Aug-24 03:32N 37°16' E 023°10'0 0.0
2016-Aug-24 02:32N 37°16' E 023°10'0 0.0
2016-Aug-24 01:32N 37°16' E 023°10'0 0.0
2016-Aug-24 00:29N 37°16' E 023°10'0 0.0
2016-Aug-23 23:29N 37°16' E 023°10'0 0.0
2016-Aug-23 22:32N 37°16' E 023°10'0 0.0
2016-Aug-23 21:32N 37°16' E 023°10'0 0.0
2016-Aug-23 20:29N 37°16' E 023°10'0 0.0
2016-Aug-23 19:32N 37°16' E 023°10'0 0.0
2016-Aug-23 18:32N 37°16' E 023°10'0 0.0
2016-Aug-23 17:29N 37°16' E 023°10'0 0.0
2016-Aug-23 16:29N 37°16' E 023°10'0 0.0
2016-Aug-23 15:29N 37°16' E 023°10'0 0.0
2016-Aug-23 14:29N 37°16' E 023°10'2 0.4
2016-Aug-23 09:15N 37°14' E 023°09'2 2.8
2016-Aug-23 08:31N 37°16' E 023°10'0 0.0
2016-Aug-23 07:19N 37°16' E 023°10'0 0.0
2016-Aug-23 06:28N 37°16' E 023°10'0 0.0
2016-Aug-23 05:31N 37°16' E 023°10'0 0.0
2016-Aug-23 04:31N 37°16' E 023°10'0 0.0
2016-Aug-23 03:28N 37°16' E 023°10'0 0.0
2016-Aug-23 02:31N 37°16' E 023°10'0 0.0
2016-Aug-23 01:10N 37°16' E 023°10'0 0.0
2016-Aug-23 00:28N 37°16' E 023°10'0 0.0
2016-Aug-22 23:25N 37°16' E 023°10'0 0.0
2016-Aug-22 22:25N 37°16' E 023°10'0 0.0
2016-Aug-22 21:31N 37°16' E 023°10'0 0.0
2016-Aug-22 20:31N 37°16' E 023°10'0 0.0
2016-Aug-22 19:31N 37°16' E 023°10'0 0.0
2016-Aug-22 18:31N 37°16' E 023°10'0 0.0
2016-Aug-22 17:31N 37°16' E 023°10'0 0.0
2016-Aug-22 16:31N 37°16' E 023°10'3 2.5
2016-Aug-22 15:29N 37°17' E 023°07'2 0.3
2016-Aug-22 10:10N 37°17' E 023°05'4 6.3
2016-Aug-22 09:33N 37°16' E 023°10'0 0.0
2016-Aug-22 08:33N 37°16' E 023°10'0 0.0
2016-Aug-22 07:33N 37°16' E 023°10'0 0.0
2016-Aug-22 06:21N 37°16' E 023°10'0 0.0
2016-Aug-22 05:33N 37°16' E 023°10'0 0.0
2016-Aug-22 04:33N 37°16' E 023°10'0 0.0
2016-Aug-22 03:24N 37°16' E 023°10'0 0.0
2016-Aug-22 02:27N 37°16' E 023°10'0 0.0
2016-Aug-22 01:30N 37°16' E 023°10'0 0.0
2016-Aug-22 00:33N 37°16' E 023°10'0 0.0
2016-Aug-21 23:27N 37°16' E 023°10'0 0.0
2016-Aug-21 22:33N 37°16' E 023°10'0 0.0
2016-Aug-21 21:33N 37°16' E 023°10'0 0.0
2016-Aug-21 20:33N 37°16' E 023°10'0 0.0
2016-Aug-21 19:33N 37°16' E 023°10'0 0.0
2016-Aug-21 18:33N 37°16' E 023°10'0 0.0
2016-Aug-21 17:33N 37°16' E 023°10'0 0.0
2016-Aug-21 16:24N 37°16' E 023°10'0 0.0
2016-Aug-21 15:30N 37°16' E 023°10'0 0.0
2016-Aug-21 14:27N 37°16' E 023°10'0 0.0
2016-Aug-21 13:33N 37°16' E 023°10'0 0.0
2016-Aug-21 12:33N 37°16' E 023°10'0 0.0
2016-Aug-21 11:30N 37°16' E 023°10'0 0.0
2016-Aug-21 10:24N 37°16' E 023°10'0 0.0
2016-Aug-21 09:33N 37°16' E 023°10'0 0.0
2016-Aug-21 08:33N 37°16' E 023°10'0 0.0
2016-Aug-21 07:24N 37°16' E 023°10'0 0.0
2016-Aug-21 06:33N 37°16' E 023°10'0 0.0
2016-Aug-21 05:30N 37°16' E 023°10'0 0.0
2016-Aug-21 04:33N 37°16' E 023°10'0 0.0
2016-Aug-21 03:33N 37°16' E 023°10'0 0.0
2016-Aug-21 02:33N 37°16' E 023°10'0 0.0
2016-Aug-21 01:33N 37°16' E 023°10'0 0.0
2016-Aug-21 00:30N 37°16' E 023°10'0 0.0
2016-Aug-20 23:30N 37°16' E 023°10'0 0.0
2016-Aug-20 22:24N 37°16' E 023°10'0 0.0
2016-Aug-20 21:30N 37°16' E 023°10'0 0.0
2016-Aug-20 20:33N 37°16' E 023°10'0 0.0
2016-Aug-20 19:33N 37°16' E 023°10'0 0.0
2016-Aug-20 18:30N 37°16' E 023°10'0 0.0
2016-Aug-20 17:33N 37°16' E 023°10'0 0.0
2016-Aug-20 16:33N 37°16' E 023°10'0 0.0
2016-Aug-20 15:30N 37°16' E 023°10'0 0.0
2016-Aug-20 14:30N 37°16' E 023°10'0 0.0
2016-Aug-20 13:27N 37°16' E 023°10'0 0.0
2016-Aug-20 12:30N 37°16' E 023°10'0 0.0
2016-Aug-20 11:33N 37°16' E 023°10'0 0.0
2016-Aug-20 10:27N 37°16' E 023°10'0 0.0
2016-Aug-20 09:30N 37°16' E 023°10'0 0.0
2016-Aug-20 08:33N 37°16' E 023°10'0 0.0
2016-Aug-20 07:27N 37°16' E 023°10'0 0.0
2016-Aug-20 06:33N 37°16' E 023°10'0 0.0
2016-Aug-20 05:33N 37°16' E 023°10'0 0.0
2016-Aug-20 04:21N 37°16' E 023°10'0 0.0
2016-Aug-20 03:21N 37°16' E 023°10'0 0.0
2016-Aug-20 02:18N 37°16' E 023°10'0 0.0
2016-Aug-20 01:30N 37°16' E 023°10'0 0.0
2016-Aug-20 00:33N 37°16' E 023°10'0 0.0
2016-Aug-19 23:33N 37°16' E 023°10'0 0.0
2016-Aug-19 22:33N 37°16' E 023°10'0 0.0
2016-Aug-19 21:33N 37°16' E 023°10'0 0.0
2016-Aug-19 20:33N 37°16' E 023°10'0 0.0
2016-Aug-19 19:27N 37°16' E 023°10'0 0.0
2016-Aug-19 18:33N 37°16' E 023°10'0 0.0
2016-Aug-19 17:30N 37°16' E 023°10'0 0.0
2016-Aug-19 16:33N 37°16' E 023°10'0 0.0
2016-Aug-19 15:30N 37°16' E 023°10'0 0.0
2016-Aug-19 14:24N 37°16' E 023°10'0 0.0
2016-Aug-19 13:33N 37°16' E 023°10'0 0.0
2016-Aug-19 12:33N 37°16' E 023°10'0 0.0
2016-Aug-19 11:33N 37°16' E 023°10'0 0.0
2016-Aug-19 10:33N 37°16' E 023°10'0 0.0
2016-Aug-19 09:21N 37°16' E 023°10'0 0.0
2016-Aug-19 08:27N 37°16' E 023°10'0 0.0
2016-Aug-19 07:33N 37°16' E 023°10'0 0.0
2016-Aug-19 06:33N 37°16' E 023°10'0 0.0
2016-Aug-19 05:30N 37°16' E 023°10'0 0.0
2016-Aug-19 04:33N 37°16' E 023°10'0 0.0
2016-Aug-19 03:30N 37°16' E 023°10'0 0.0
2016-Aug-19 02:30N 37°16' E 023°10'0 0.0
2016-Aug-19 01:33N 37°16' E 023°10'0 0.0
2016-Aug-19 00:33N 37°16' E 023°10'0 0.0
2016-Aug-18 23:33N 37°16' E 023°10'0 0.0
2016-Aug-18 22:30N 37°16' E 023°10'0 0.0
2016-Aug-18 21:30N 37°16' E 023°10'0 0.0
2016-Aug-18 20:30N 37°16' E 023°10'0 0.0
2016-Aug-18 19:30N 37°16' E 023°10'0 0.0
2016-Aug-18 18:33N 37°16' E 023°10'0 0.0
2016-Aug-18 17:24N 37°16' E 023°10'0 0.0
2016-Aug-18 16:30N 37°16' E 023°10'0 0.0
2016-Aug-18 15:33N 37°16' E 023°10'0 0.0
2016-Aug-18 14:33N 37°16' E 023°10'0 0.0
2016-Aug-18 13:24N 37°16' E 023°10'0 0.0
2016-Aug-18 12:21N 37°16' E 023°10'0 0.0
2016-Aug-18 11:24N 37°16' E 023°10'0 0.0
2016-Aug-18 10:33N 37°16' E 023°10'0 0.0
2016-Aug-18 09:33N 37°16' E 023°10'0 0.0
2016-Aug-18 08:30N 37°16' E 023°10'0 0.0
2016-Aug-18 07:33N 37°16' E 023°10'0 0.0
2016-Aug-18 06:21N 37°16' E 023°10'0 0.0
2016-Aug-18 04:18N 37°16' E 023°10'0 0.0
2016-Aug-18 03:33N 37°16' E 023°10'0 0.0
2016-Aug-18 02:33N 37°16' E 023°10'0 0.0
2016-Aug-18 01:30N 37°16' E 023°10'0 0.0
2016-Aug-18 00:33N 37°16' E 023°10'  
Track history (hours):
 
Tides and Currents Weather Stations Pressure Air Temp Water Temp Dewpoint Dewpoint Depression Visibility Wind Speed Wind Dir Waves Ship Positions

Fivea

Last reported at 2016-Aug-27 23:34 UTC. Time now 2016-Aug-28 00:34 UTC.
Position N 37°48' E 023°46'.

Length 45 m; draft 3.8 m.

Type: Other ship. MMSI: 235092742.

Date/timePositionNaut miles runAvg speedWind from/ knotsBaromVisibWave heightAir tempDewpointWater temp
2016-Aug-27 23:34N 37°48' E 023°46'0 0.0
2016-Aug-27 22:31N 37°48' E 023°46'0 0.0
2016-Aug-27 21:31N 37°48' E 023°46'0 0.0
2016-Aug-27 20:34N 37°48' E 023°46'0 0.0
2016-Aug-27 19:31N 37°48' E 023°46'0 0.0
2016-Aug-27 18:31N 37°48' E 023°46'0 0.0
2016-Aug-27 17:31N 37°48' E 023°46'0 0.0
2016-Aug-27 16:31N 37°48' E 023°46'0 0.0
2016-Aug-27 15:31N 37°48' E 023°46'0 0.0
2016-Aug-27 14:31N 37°48' E 023°46'0 0.0
2016-Aug-27 13:31N 37°48' E 023°46'0 0.0
2016-Aug-27 12:31N 37°48' E 023°46'0 0.0
2016-Aug-27 11:31N 37°48' E 023°46'0 0.0
2016-Aug-27 10:34N 37°48' E 023°46'0 0.0
2016-Aug-27 09:31N 37°48' E 023°46'0 0.0
2016-Aug-27 08:34N 37°48' E 023°46'0 0.0
2016-Aug-27 07:31N 37°48' E 023°46'0 0.0
2016-Aug-27 06:34N 37°48' E 023°46'0 0.0
2016-Aug-27 04:34N 37°48' E 023°46'0 0.0
2016-Aug-27 03:34N 37°48' E 023°46'0 0.0
2016-Aug-27 02:34N 37°48' E 023°46'0 0.0
2016-Aug-27 01:34N 37°48' E 023°46'0 0.0
2016-Aug-27 00:34N 37°48' E 023°46'0 0.0
2016-Aug-26 23:34N 37°48' E 023°46'0 0.0
2016-Aug-26 22:34N 37°48' E 023°46'0 0.0
2016-Aug-26 21:34N 37°48' E 023°46'0 0.0
2016-Aug-26 20:34N 37°48' E 023°46'0 0.0
2016-Aug-26 19:34N 37°48' E 023°46'0 0.0
2016-Aug-26 18:34N 37°48' E 023°46'0 0.0
2016-Aug-26 17:34N 37°48' E 023°46'0 0.0
2016-Aug-26 16:34N 37°48' E 023°46'0 0.0
2016-Aug-26 15:34N 37°48' E 023°46'0 0.0
2016-Aug-26 14:34N 37°48' E 023°46'0 0.2
2016-Aug-26 13:33N 37°48' E 023°47'1010.5
2016-Aug-26 12:34N 37°39' E 023°41'1211.5
2016-Aug-26 11:33N 37°29' E 023°35'1211.0
2016-Aug-26 10:26N 37°22' E 023°21'1011.5
2016-Aug-26 09:33N 37°16' E 023°11'1 0.8
2016-Aug-26 08:27N 37°16' E 023°10'3 1.7
2016-Aug-26 06:24N 37°19' E 023°09'0 0.0
2016-Aug-26 04:12N 37°19' E 023°09'0 0.0
2016-Aug-26 02:33N 37°19' E 023°09'0 0.0
2016-Aug-25 23:30N 37°19' E 023°09'0 0.0
2016-Aug-25 19:03N 37°19' E 023°09'0 0.0
2016-Aug-25 18:33N 37°19' E 023°09'1 0.3
2016-Aug-25 15:30N 37°19' E 023°08'3 0.5
2016-Aug-25 09:30N 37°17' E 023°05'4 3.7
2016-Aug-25 08:27N 37°16' E 023°10'0 0.0
2016-Aug-25 07:12N 37°16' E 023°10'0 0.0
2016-Aug-25 06:31N 37°16' E 023°10'3 1.6
2016-Aug-25 04:27N 37°19' E 023°09'0 0.0
2016-Aug-25 03:30N 37°19' E 023°09'0 0.0
2016-Aug-25 02:27N 37°19' E 023°09'0 0.0
2016-Aug-25 01:30N 37°19' E 023°09'0 0.0
2016-Aug-25 00:24N 37°19' E 023°09'0 0.0
2016-Aug-24 23:33N 37°19' E 023°09'0 0.0
2016-Aug-24 22:33N 37°19' E 023°09'0 0.0
2016-Aug-24 21:33N 37°19' E 023°09'0 0.0
2016-Aug-24 20:06N 37°19' E 023°09'0 0.0
2016-Aug-24 19:24N 37°19' E 023°09'0 0.0
2016-Aug-24 18:30N 37°19' E 023°09'0 0.0
2016-Aug-24 17:24N 37°19' E 023°09'0 0.0
2016-Aug-24 16:30N 37°19' E 023°09'0 0.0
2016-Aug-24 15:21N 37°19' E 023°09'3 4.0
2016-Aug-24 14:31N 37°16' E 023°10'2 0.4
2016-Aug-24 09:21N 37°14' E 023°09'2 2.6
2016-Aug-24 08:32N 37°16' E 023°10'0 0.0
2016-Aug-24 07:29N 37°16' E 023°10'0 0.0
2016-Aug-24 06:14N 37°16' E 023°10'0 0.0
2016-Aug-24 04:32N 37°16' E 023°10'0 0.0
2016-Aug-24 03:32N 37°16' E 023°10'0 0.0
2016-Aug-24 02:32N 37°16' E 023°10'0 0.0
2016-Aug-24 01:32N 37°16' E 023°10'0 0.0
2016-Aug-24 00:29N 37°16' E 023°10'0 0.0
2016-Aug-23 23:29N 37°16' E 023°10'0 0.0
2016-Aug-23 22:32N 37°16' E 023°10'0 0.0
2016-Aug-23 21:32N 37°16' E 023°10'0 0.0
2016-Aug-23 20:29N 37°16' E 023°10'0 0.0
2016-Aug-23 19:32N 37°16' E 023°10'0 0.0
2016-Aug-23 18:32N 37°16' E 023°10'0 0.0
2016-Aug-23 17:29N 37°16' E 023°10'0 0.0
2016-Aug-23 16:29N 37°16' E 023°10'0 0.0
2016-Aug-23 15:29N 37°16' E 023°10'0 0.0
2016-Aug-23 14:29N 37°16' E 023°10'2 0.4
2016-Aug-23 09:15N 37°14' E 023°09'2 2.8
2016-Aug-23 08:31N 37°16' E 023°10'0 0.0
2016-Aug-23 07:19N 37°16' E 023°10'0 0.0
2016-Aug-23 06:28N 37°16' E 023°10'0 0.0
2016-Aug-23 05:31N 37°16' E 023°10'0 0.0
2016-Aug-23 04:31N 37°16' E 023°10'0 0.0
2016-Aug-23 03:28N 37°16' E 023°10'0 0.0
2016-Aug-23 02:31N 37°16' E 023°10'0 0.0
2016-Aug-23 01:10N 37°16' E 023°10'0 0.0
2016-Aug-23 00:28N 37°16' E 023°10'0 0.0
2016-Aug-22 23:25N 37°16' E 023°10'0 0.0
2016-Aug-22 22:25N 37°16' E 023°10'0 0.0
2016-Aug-22 21:31N 37°16' E 023°10'0 0.0
2016-Aug-22 20:31N 37°16' E 023°10'0 0.0
2016-Aug-22 19:31N 37°16' E 023°10'0 0.0
2016-Aug-22 18:31N 37°16' E 023°10'0 0.0
2016-Aug-22 17:31N 37°16' E 023°10'0 0.0
2016-Aug-22 16:31N 37°16' E 023°10'3 2.5
2016-Aug-22 15:29N 37°17' E 023°07'2 0.3
2016-Aug-22 10:10N 37°17' E 023°05'4 6.3
2016-Aug-22 09:33N 37°16' E 023°10'0 0.0
2016-Aug-22 08:33N 37°16' E 023°10'0 0.0
2016-Aug-22 07:33N 37°16' E 023°10'0 0.0
2016-Aug-22 06:21N 37°16' E 023°10'0 0.0
2016-Aug-22 05:33N 37°16' E 023°10'0 0.0
2016-Aug-22 04:33N 37°16' E 023°10'0 0.0
2016-Aug-22 03:24N 37°16' E 023°10'0 0.0
2016-Aug-22 02:27N 37°16' E 023°10'0 0.0
2016-Aug-22 01:30N 37°16' E 023°10'0 0.0
2016-Aug-22 00:33N 37°16' E 023°10'0 0.0
2016-Aug-21 23:27N 37°16' E 023°10'0 0.0
2016-Aug-21 22:33N 37°16' E 023°10'0 0.0
2016-Aug-21 21:33N 37°16' E 023°10'0 0.0
2016-Aug-21 20:33N 37°16' E 023°10'0 0.0
2016-Aug-21 19:33N 37°16' E 023°10'0 0.0
2016-Aug-21 18:33N 37°16' E 023°10'0 0.0
2016-Aug-21 17:33N 37°16' E 023°10'0 0.0
2016-Aug-21 16:24N 37°16' E 023°10'0 0.0
2016-Aug-21 15:30N 37°16' E 023°10'0 0.0
2016-Aug-21 14:27N 37°16' E 023°10'0 0.0
2016-Aug-21 13:33N 37°16' E 023°10'0 0.0
2016-Aug-21 12:33N 37°16' E 023°10'0 0.0
2016-Aug-21 11:30N 37°16' E 023°10'0 0.0
2016-Aug-21 10:24N 37°16' E 023°10'0 0.0
2016-Aug-21 09:33N 37°16' E 023°10'0 0.0
2016-Aug-21 08:33N 37°16' E 023°10'0 0.0
2016-Aug-21 07:24N 37°16' E 023°10'0 0.0
2016-Aug-21 06:33N 37°16' E 023°10'0 0.0
2016-Aug-21 05:30N 37°16' E 023°10'0 0.0
2016-Aug-21 04:33N 37°16' E 023°10'0 0.0
2016-Aug-21 03:33N 37°16' E 023°10'0 0.0
2016-Aug-21 02:33N 37°16' E 023°10'0 0.0
2016-Aug-21 01:33N 37°16' E 023°10'0 0.0
2016-Aug-21 00:30N 37°16' E 023°10'0 0.0
2016-Aug-20 23:30N 37°16' E 023°10'0 0.0
2016-Aug-20 22:24N 37°16' E 023°10'0 0.0
2016-Aug-20 21:30N 37°16' E 023°10'0 0.0
2016-Aug-20 20:33N 37°16' E 023°10'0 0.0
2016-Aug-20 19:33N 37°16' E 023°10'0 0.0
2016-Aug-20 18:30N 37°16' E 023°10'0 0.0
2016-Aug-20 17:33N 37°16' E 023°10'0 0.0
2016-Aug-20 16:33N 37°16' E 023°10'0 0.0
2016-Aug-20 15:30N 37°16' E 023°10'0 0.0
2016-Aug-20 14:30N 37°16' E 023°10'0 0.0
2016-Aug-20 13:27N 37°16' E 023°10'0 0.0
2016-Aug-20 12:30N 37°16' E 023°10'0 0.0
2016-Aug-20 11:33N 37°16' E 023°10'0 0.0
2016-Aug-20 10:27N 37°16' E 023°10'0 0.0
2016-Aug-20 09:30N 37°16' E 023°10'0 0.0
2016-Aug-20 08:33N 37°16' E 023°10'0 0.0
2016-Aug-20 07:27N 37°16' E 023°10'0 0.0
2016-Aug-20 06:33N 37°16' E 023°10'0 0.0
2016-Aug-20 05:33N 37°16' E 023°10'0 0.0
2016-Aug-20 04:21N 37°16' E 023°10'0 0.0
2016-Aug-20 03:21N 37°16' E 023°10'0 0.0
2016-Aug-20 02:18N 37°16' E 023°10'0 0.0
2016-Aug-20 01:30N 37°16' E 023°10'0 0.0
2016-Aug-20 00:33N 37°16' E 023°10'0 0.0
2016-Aug-19 23:33N 37°16' E 023°10'0 0.0
2016-Aug-19 22:33N 37°16' E 023°10'0 0.0
2016-Aug-19 21:33N 37°16' E 023°10'0 0.0
2016-Aug-19 20:33N 37°16' E 023°10'0 0.0
2016-Aug-19 19:27N 37°16' E 023°10'0 0.0
2016-Aug-19 18:33N 37°16' E 023°10'0 0.0
2016-Aug-19 17:30N 37°16' E 023°10'0 0.0
2016-Aug-19 16:33N 37°16' E 023°10'0 0.0
2016-Aug-19 15:30N 37°16' E 023°10'0 0.0
2016-Aug-19 14:24N 37°16' E 023°10'0 0.0
2016-Aug-19 13:33N 37°16' E 023°10'0 0.0
2016-Aug-19 12:33N 37°16' E 023°10'0 0.0
2016-Aug-19 11:33N 37°16' E 023°10'0 0.0
2016-Aug-19 10:33N 37°16' E 023°10'0 0.0
2016-Aug-19 09:21N 37°16' E 023°10'0 0.0
2016-Aug-19 08:27N 37°16' E 023°10'0 0.0
2016-Aug-19 07:33N 37°16' E 023°10'0 0.0
2016-Aug-19 06:33N 37°16' E 023°10'0 0.0
2016-Aug-19 05:30N 37°16' E 023°10'0 0.0
2016-Aug-19 04:33N 37°16' E 023°10'0 0.0
2016-Aug-19 03:30N 37°16' E 023°10'0 0.0
2016-Aug-19 02:30N 37°16' E 023°10'0 0.0
2016-Aug-19 01:33N 37°16' E 023°10'0 0.0
2016-Aug-19 00:33N 37°16' E 023°10'0 0.0
2016-Aug-18 23:33N 37°16' E 023°10'0 0.0
2016-Aug-18 22:30N 37°16' E 023°10'0 0.0
2016-Aug-18 21:30N 37°16' E 023°10'0 0.0
2016-Aug-18 20:30N 37°16' E 023°10'0 0.0
2016-Aug-18 19:30N 37°16' E 023°10'0 0.0
2016-Aug-18 18:33N 37°16' E 023°10'0 0.0
2016-Aug-18 17:24N 37°16' E 023°10'0 0.0
2016-Aug-18 16:30N 37°16' E 023°10'0 0.0
2016-Aug-18 15:33N 37°16' E 023°10'0 0.0
2016-Aug-18 14:33N 37°16' E 023°10'0 0.0
2016-Aug-18 13:24N 37°16' E 023°10'0 0.0
2016-Aug-18 12:21N 37°16' E 023°10'0 0.0
2016-Aug-18 11:24N 37°16' E 023°10'0 0.0
2016-Aug-18 10:33N 37°16' E 023°10'0 0.0
2016-Aug-18 09:33N 37°16' E 023°10'0 0.0
2016-Aug-18 08:30N 37°16' E 023°10'0 0.0
2016-Aug-18 07:33N 37°16' E 023°10'0 0.0
2016-Aug-18 06:21N 37°16' E 023°10'0 0.0
2016-Aug-18 04:18N 37°16' E 023°10'0 0.0
2016-Aug-18 03:33N 37°16' E 023°10'0 0.0
2016-Aug-18 02:33N 37°16' E 023°10'0 0.0
2016-Aug-18 01:30N 37°16' E 023°10'0 0.0
2016-Aug-18 00:33N 37°16' E 023°10'  

Dump ship's entire track history